UAL154 PTKK-PGUM
Flight info
| Callsign | UAL154 |
|---|---|
| Flight time | 1h 27m |
| Altitude | 36000 |
| Route | WUMVE GUNSS |
| Aircraft | B38M/M-SDE1FGHILORVWXY/HB1 |
Departure
| Time | 2026-04-29 15:32 |
|---|---|
| Airport | Chuuk International Airport (PTKK) |
Arrival
| Time | 2026-04-29 16:59 |
|---|---|
| Airport | Antonio B. Won Pat International Airport (PGUM) |
| Time | Latitude | Longitude | Altitude | Speed | Heading |
|---|---|---|---|---|---|
| 2026-04-29 15:06 | 7.45787 | 151.84095 | 24 ft | 0 kts | 226° |
| 2026-04-29 15:29 | 7.45784 | 151.84089 | 22 ft | 2 kts | 248° |
| 2026-04-29 15:29 | 7.45797 | 151.84077 | 23 ft | 2 kts | 1° |
| 2026-04-29 15:30 | 7.45850 | 151.84074 | 24 ft | 6 kts | 334° |
| 2026-04-29 15:30 | 7.45886 | 151.84043 | 22 ft | 8 kts | 313° |
| 2026-04-29 15:30 | 7.45892 | 151.83986 | 24 ft | 10 kts | 242° |
| 2026-04-29 15:30 | 7.45840 | 151.83930 | 22 ft | 13 kts | 226° |
| 2026-04-29 15:31 | 7.45772 | 151.83859 | 22 ft | 15 kts | 226° |
| 2026-04-29 15:31 | 7.45693 | 151.83777 | 25 ft | 17 kts | 228° |
| 2026-04-29 15:31 | 7.45645 | 151.83692 | 20 ft | 12 kts | 182° |
| 2026-04-29 15:31 | 7.45641 | 151.83723 | 20 ft | 4 kts | 47° |
| 2026-04-29 15:32 | 7.45675 | 151.83758 | 22 ft | 32 kts | 46° |
| 2026-04-29 15:32 | 7.46046 | 151.84145 | 21 ft | 119 kts | 46° |
| 2026-04-29 15:32 | 7.46783 | 151.84911 | 173 ft | 175 kts | 45° |
| 2026-04-29 15:32 | 7.47667 | 151.85837 | 1024 ft | 191 kts | 46° |
| 2026-04-29 15:33 | 7.48555 | 151.86778 | 2167 ft | 191 kts | 47° |
| 2026-04-29 15:33 | 7.49772 | 151.87498 | 2833 ft | 219 kts | 11° |
| 2026-04-29 15:33 | 7.51325 | 151.87231 | 3532 ft | 247 kts | 332° |
| 2026-04-29 15:33 | 7.52560 | 151.85927 | 4379 ft | 267 kts | 300° |
| 2026-04-29 15:34 | 7.53334 | 151.84194 | 5244 ft | 281 kts | 294° |
| 2026-04-29 15:34 | 7.54109 | 151.82329 | 6302 ft | 287 kts | 294° |
| 2026-04-29 15:34 | 7.54890 | 151.80454 | 7293 ft | 293 kts | 294° |
| 2026-04-29 15:34 | 7.55680 | 151.78585 | 8346 ft | 294 kts | 294° |
| 2026-04-29 15:35 | 7.56493 | 151.76685 | 9414 ft | 297 kts | 294° |
| 2026-04-29 15:35 | 7.57323 | 151.74761 | 10292 ft | 305 kts | 294° |
| 2026-04-29 15:35 | 7.58196 | 151.72753 | 10893 ft | 320 kts | 294° |
| 2026-04-29 15:35 | 7.59271 | 151.70744 | 11602 ft | 329 kts | 301° |
| 2026-04-29 15:36 | 7.60513 | 151.68810 | 12548 ft | 330 kts | 304° |
| 2026-04-29 15:36 | 7.61861 | 151.66918 | 13405 ft | 334 kts | 306° |
| 2026-04-29 15:36 | 7.63289 | 151.65053 | 14185 ft | 338 kts | 308° |
| 2026-04-29 15:36 | 7.64775 | 151.63195 | 14883 ft | 343 kts | 308° |
| 2026-04-29 15:37 | 7.66303 | 151.61328 | 15575 ft | 347 kts | 308° |
| 2026-04-29 15:37 | 7.67860 | 151.59446 | 16253 ft | 352 kts | 308° |
| 2026-04-29 15:37 | 7.69446 | 151.57544 | 16906 ft | 357 kts | 308° |
| 2026-04-29 15:37 | 7.71061 | 151.55616 | 17555 ft | 362 kts | 308° |
| 2026-04-29 15:38 | 7.72697 | 151.53667 | 18207 ft | 366 kts | 308° |
| 2026-04-29 15:38 | 7.74351 | 151.51697 | 18766 ft | 369 kts | 308° |
| 2026-04-29 15:38 | 7.76015 | 151.49715 | 19347 ft | 372 kts | 308° |
| 2026-04-29 15:38 | 7.77689 | 151.47722 | 19933 ft | 373 kts | 308° |
| 2026-04-29 15:39 | 7.79394 | 151.45738 | 20500 ft | 376 kts | 310° |
| 2026-04-29 15:39 | 7.81136 | 151.43761 | 21071 ft | 378 kts | 310° |
| 2026-04-29 15:39 | 7.82884 | 151.41773 | 21623 ft | 380 kts | 310° |
| 2026-04-29 15:39 | 7.84642 | 151.39770 | 22158 ft | 382 kts | 311° |
| 2026-04-29 15:40 | 7.86407 | 151.37758 | 22698 ft | 385 kts | 311° |
| 2026-04-29 15:40 | 7.88185 | 151.35729 | 23213 ft | 387 kts | 311° |
| 2026-04-29 15:40 | 7.89977 | 151.33685 | 23653 ft | 390 kts | 311° |
| 2026-04-29 15:40 | 7.91782 | 151.31625 | 24051 ft | 394 kts | 311° |
| 2026-04-29 15:41 | 7.93602 | 151.29548 | 24445 ft | 397 kts | 311° |
| 2026-04-29 15:41 | 7.95436 | 151.27455 | 24848 ft | 400 kts | 311° |
| 2026-04-29 15:41 | 7.97281 | 151.25349 | 25237 ft | 403 kts | 311° |
| 2026-04-29 15:41 | 7.99146 | 151.23221 | 25624 ft | 406 kts | 311° |
| 2026-04-29 15:42 | 8.01017 | 151.21084 | 26050 ft | 408 kts | 311° |
| 2026-04-29 15:42 | 8.02902 | 151.18933 | 26430 ft | 411 kts | 311° |
| 2026-04-29 15:42 | 8.04801 | 151.16763 | 26808 ft | 414 kts | 311° |
| 2026-04-29 15:42 | 8.06711 | 151.14580 | 27178 ft | 417 kts | 310° |
| 2026-04-29 15:43 | 8.08644 | 151.12373 | 27505 ft | 421 kts | 310° |
| 2026-04-29 15:43 | 8.10590 | 151.10150 | 27892 ft | 423 kts | 311° |
| 2026-04-29 15:43 | 8.12516 | 151.07948 | 28261 ft | 426 kts | 310° |
| 2026-04-29 15:43 | 8.14491 | 151.05691 | 28527 ft | 431 kts | 310° |
| 2026-04-29 15:44 | 8.16483 | 151.03415 | 28896 ft | 433 kts | 310° |
| 2026-04-29 15:44 | 8.18482 | 151.01130 | 29312 ft | 434 kts | 311° |
| 2026-04-29 15:44 | 8.20487 | 150.98836 | 29638 ft | 438 kts | 310° |
| 2026-04-29 15:44 | 8.22514 | 150.96518 | 29901 ft | 442 kts | 310° |
| 2026-04-29 15:45 | 8.24551 | 150.94188 | 30259 ft | 443 kts | 311° |
| 2026-04-29 15:45 | 8.26592 | 150.91854 | 30588 ft | 444 kts | 311° |
| 2026-04-29 15:45 | 8.28638 | 150.89512 | 30874 ft | 446 kts | 311° |
| 2026-04-29 15:45 | 8.30696 | 150.87156 | 31154 ft | 449 kts | 311° |
| 2026-04-29 15:46 | 8.32767 | 150.84785 | 31422 ft | 451 kts | 311° |
| 2026-04-29 15:46 | 8.34848 | 150.82403 | 31686 ft | 454 kts | 311° |
| 2026-04-29 15:46 | 8.36942 | 150.80006 | 31951 ft | 456 kts | 311° |
| 2026-04-29 15:46 | 8.39048 | 150.77594 | 32213 ft | 458 kts | 311° |
| 2026-04-29 15:47 | 8.41163 | 150.75169 | 32440 ft | 462 kts | 311° |
| 2026-04-29 15:47 | 8.43300 | 150.72723 | 32653 ft | 465 kts | 311° |
| 2026-04-29 15:47 | 8.45440 | 150.70270 | 33021 ft | 465 kts | 311° |
| 2026-04-29 15:47 | 8.47585 | 150.67811 | 33218 ft | 470 kts | 310° |
| 2026-04-29 15:48 | 8.49759 | 150.65319 | 33345 ft | 474 kts | 311° |
| 2026-04-29 15:48 | 8.51936 | 150.62824 | 33706 ft | 474 kts | 311° |
| 2026-04-29 15:48 | 8.53386 | 150.61163 | 33870 ft | 475 kts | 311° |
| 2026-04-29 15:48 | 8.55564 | 150.58662 | 34189 ft | 475 kts | 311° |
| 2026-04-29 15:49 | 8.57745 | 150.56162 | 34499 ft | 473 kts | 311° |
| 2026-04-29 15:49 | 8.59916 | 150.53668 | 34829 ft | 473 kts | 310° |
| 2026-04-29 15:49 | 8.62101 | 150.51162 | 34973 ft | 477 kts | 310° |
| 2026-04-29 15:49 | 8.64292 | 150.48649 | 35274 ft | 476 kts | 310° |
| 2026-04-29 15:50 | 8.66472 | 150.46146 | 35657 ft | 473 kts | 310° |
| 2026-04-29 15:50 | 8.68648 | 150.43647 | 35877 ft | 474 kts | 310° |
| 2026-04-29 15:50 | 8.70823 | 150.41150 | 35889 ft | 472 kts | 310° |
| 2026-04-29 15:51 | 8.75140 | 150.36190 | 35882 ft | 470 kts | 310° |
| 2026-04-29 15:51 | 8.79456 | 150.31231 | 35888 ft | 466 kts | 310° |
| 2026-04-29 15:52 | 8.83731 | 150.26315 | 35889 ft | 465 kts | 310° |
| 2026-04-29 15:52 | 8.88034 | 150.21367 | 35884 ft | 470 kts | 310° |
| 2026-04-29 15:53 | 8.92334 | 150.16419 | 35881 ft | 466 kts | 310° |
| 2026-04-29 15:53 | 8.96608 | 150.11501 | 35890 ft | 464 kts | 310° |
| 2026-04-29 15:54 | 9.00853 | 150.06613 | 35885 ft | 462 kts | 310° |
| 2026-04-29 15:54 | 9.05094 | 150.01729 | 35884 ft | 462 kts | 310° |
| 2026-04-29 15:55 | 9.09317 | 149.96861 | 35887 ft | 466 kts | 310° |
| 2026-04-29 15:55 | 9.13621 | 149.91901 | 35893 ft | 466 kts | 310° |
| 2026-04-29 15:56 | 9.17857 | 149.87017 | 35893 ft | 462 kts | 310° |
| 2026-04-29 15:56 | 9.22094 | 149.82127 | 35887 ft | 462 kts | 310° |
| 2026-04-29 15:57 | 9.26376 | 149.77186 | 35887 ft | 465 kts | 310° |
| 2026-04-29 15:57 | 9.30613 | 149.72294 | 35888 ft | 465 kts | 310° |
| 2026-04-29 15:58 | 9.34869 | 149.67377 | 35886 ft | 463 kts | 310° |
| 2026-04-29 15:58 | 9.39113 | 149.62474 | 35892 ft | 463 kts | 310° |
| 2026-04-29 15:59 | 9.43341 | 149.57586 | 35890 ft | 460 kts | 310° |
| 2026-04-29 15:59 | 9.47566 | 149.52701 | 35892 ft | 461 kts | 310° |
| 2026-04-29 16:00 | 9.51773 | 149.47833 | 35890 ft | 458 kts | 310° |
| 2026-04-29 16:00 | 9.55966 | 149.42981 | 35893 ft | 458 kts | 310° |
| 2026-04-29 16:01 | 9.60170 | 149.38114 | 35899 ft | 459 kts | 310° |
| 2026-04-29 16:01 | 9.64364 | 149.33254 | 35892 ft | 458 kts | 310° |
| 2026-04-29 16:02 | 9.68570 | 149.28381 | 35895 ft | 459 kts | 310° |
| 2026-04-29 16:02 | 9.72768 | 149.23516 | 35892 ft | 458 kts | 310° |
| 2026-04-29 16:03 | 9.76963 | 149.18651 | 35905 ft | 458 kts | 310° |
| 2026-04-29 16:03 | 9.81140 | 149.13803 | 35896 ft | 456 kts | 310° |
| 2026-04-29 16:04 | 9.85316 | 149.08957 | 35895 ft | 456 kts | 310° |
| 2026-04-29 16:04 | 9.89489 | 149.04111 | 35898 ft | 456 kts | 310° |
| 2026-04-29 16:05 | 9.93655 | 148.99270 | 35894 ft | 455 kts | 310° |
| 2026-04-29 16:05 | 9.97820 | 148.94431 | 35898 ft | 455 kts | 310° |
| 2026-04-29 16:06 | 10.01985 | 148.89588 | 35898 ft | 455 kts | 310° |
| 2026-04-29 16:06 | 10.06147 | 148.84747 | 35898 ft | 455 kts | 310° |
| 2026-04-29 16:07 | 10.10306 | 148.79907 | 35901 ft | 455 kts | 310° |
| 2026-04-29 16:07 | 10.14468 | 148.75062 | 35901 ft | 455 kts | 311° |
| 2026-04-29 16:08 | 10.18624 | 148.70222 | 35896 ft | 454 kts | 311° |
| 2026-04-29 16:08 | 10.22747 | 148.65418 | 35900 ft | 455 kts | 311° |
| 2026-04-29 16:09 | 10.26900 | 148.60576 | 35903 ft | 454 kts | 311° |
| 2026-04-29 16:09 | 10.31050 | 148.55736 | 35903 ft | 454 kts | 310° |
| 2026-04-29 16:10 | 10.35196 | 148.50899 | 35902 ft | 453 kts | 310° |
| 2026-04-29 16:10 | 10.39335 | 148.46069 | 35904 ft | 453 kts | 311° |
| 2026-04-29 16:11 | 10.43475 | 148.41235 | 35906 ft | 453 kts | 310° |
| 2026-04-29 16:11 | 10.47609 | 148.36405 | 35906 ft | 453 kts | 311° |
| 2026-04-29 16:12 | 10.51744 | 148.31573 | 35905 ft | 453 kts | 311° |
| 2026-04-29 16:12 | 10.55883 | 148.26734 | 35909 ft | 454 kts | 311° |
| 2026-04-29 16:13 | 10.60019 | 148.21897 | 35909 ft | 453 kts | 310° |
| 2026-04-29 16:13 | 10.64133 | 148.17082 | 35906 ft | 450 kts | 310° |
| 2026-04-29 16:14 | 10.68214 | 148.12305 | 35911 ft | 451 kts | 310° |
| 2026-04-29 16:14 | 10.72316 | 148.07499 | 35910 ft | 449 kts | 310° |
| 2026-04-29 16:15 | 10.75879 | 148.02308 | 35912 ft | 449 kts | 303° |
| 2026-04-29 16:15 | 10.79332 | 147.97001 | 35912 ft | 450 kts | 303° |
| 2026-04-29 16:16 | 10.82799 | 147.91657 | 35915 ft | 450 kts | 303° |
| 2026-04-29 16:16 | 10.86219 | 147.86381 | 35916 ft | 449 kts | 303° |
| 2026-04-29 16:17 | 10.89645 | 147.81094 | 35912 ft | 447 kts | 303° |
| 2026-04-29 16:17 | 10.93057 | 147.75827 | 35915 ft | 444 kts | 303° |
| 2026-04-29 16:18 | 10.96460 | 147.70571 | 35913 ft | 446 kts | 303° |
| 2026-04-29 16:18 | 10.99875 | 147.65294 | 35914 ft | 446 kts | 303° |
| 2026-04-29 16:19 | 11.03295 | 147.60005 | 35922 ft | 448 kts | 303° |
| 2026-04-29 16:19 | 11.06706 | 147.54727 | 35913 ft | 445 kts | 303° |
| 2026-04-29 16:20 | 11.10112 | 147.49456 | 35924 ft | 445 kts | 303° |
| 2026-04-29 16:20 | 11.13514 | 147.44189 | 35928 ft | 444 kts | 303° |
| 2026-04-29 16:21 | 11.16913 | 147.38922 | 35926 ft | 445 kts | 303° |
| 2026-04-29 16:21 | 11.20311 | 147.33654 | 35917 ft | 446 kts | 303° |
| 2026-04-29 16:22 | 11.23724 | 147.28362 | 35922 ft | 446 kts | 303° |
| 2026-04-29 16:22 | 11.27117 | 147.23096 | 35923 ft | 445 kts | 304° |
| 2026-04-29 16:23 | 11.30504 | 147.17839 | 35922 ft | 442 kts | 303° |
| 2026-04-29 16:23 | 11.33888 | 147.12582 | 35920 ft | 446 kts | 304° |
| 2026-04-29 16:24 | 11.37259 | 147.07343 | 35914 ft | 445 kts | 304° |
| 2026-04-29 16:24 | 11.40650 | 147.02070 | 35920 ft | 446 kts | 303° |
| 2026-04-29 16:25 | 11.44044 | 146.96791 | 35918 ft | 445 kts | 303° |
| 2026-04-29 16:25 | 11.47432 | 146.91518 | 35930 ft | 443 kts | 304° |
| 2026-04-29 16:26 | 11.50802 | 146.86269 | 35923 ft | 444 kts | 303° |
| 2026-04-29 16:26 | 11.54190 | 146.80992 | 35923 ft | 444 kts | 303° |
| 2026-04-29 16:27 | 11.57581 | 146.75705 | 35929 ft | 447 kts | 304° |
| 2026-04-29 16:27 | 11.60973 | 146.70416 | 35926 ft | 444 kts | 303° |
| 2026-04-29 16:28 | 11.64353 | 146.65138 | 35930 ft | 444 kts | 304° |
| 2026-04-29 16:28 | 11.67729 | 146.59868 | 35929 ft | 443 kts | 303° |
| 2026-04-29 16:29 | 11.71113 | 146.54583 | 35933 ft | 445 kts | 303° |
| 2026-04-29 16:29 | 11.74500 | 146.49287 | 35927 ft | 447 kts | 303° |
| 2026-04-29 16:30 | 11.77895 | 146.43979 | 35933 ft | 445 kts | 303° |
| 2026-04-29 16:30 | 11.81276 | 146.38689 | 35942 ft | 445 kts | 304° |
| 2026-04-29 16:31 | 11.84645 | 146.33412 | 35928 ft | 444 kts | 304° |
| 2026-04-29 16:31 | 11.88024 | 146.28121 | 35936 ft | 446 kts | 305° |
| 2026-04-29 16:32 | 11.91409 | 146.22817 | 35938 ft | 447 kts | 304° |
| 2026-04-29 16:32 | 11.94803 | 146.17493 | 35937 ft | 447 kts | 304° |
| 2026-04-29 16:33 | 11.99882 | 146.09525 | 35937 ft | 445 kts | 304° |
| 2026-04-29 16:33 | 12.03256 | 146.04227 | 35934 ft | 446 kts | 304° |
| 2026-04-29 16:34 | 12.06640 | 145.98911 | 35933 ft | 441 kts | 303° |
| 2026-04-29 16:34 | 12.08263 | 145.96360 | 35798 ft | 429 kts | 304° |
| 2026-04-29 16:34 | 12.09357 | 145.94641 | 35535 ft | 426 kts | 304° |
| 2026-04-29 16:35 | 12.10970 | 145.92103 | 34967 ft | 426 kts | 304° |
| 2026-04-29 16:35 | 12.12585 | 145.89563 | 34350 ft | 427 kts | 304° |
| 2026-04-29 16:35 | 12.14729 | 145.86189 | 33642 ft | 426 kts | 304° |
| 2026-04-29 16:35 | 12.16338 | 145.83656 | 33109 ft | 424 kts | 305° |
| 2026-04-29 16:36 | 12.17942 | 145.81132 | 32602 ft | 422 kts | 305° |
| 2026-04-29 16:36 | 12.19019 | 145.79437 | 32273 ft | 420 kts | 305° |
| 2026-04-29 16:36 | 12.20605 | 145.76939 | 31785 ft | 418 kts | 304° |
| 2026-04-29 16:36 | 12.22180 | 145.74456 | 31305 ft | 415 kts | 305° |
| 2026-04-29 16:37 | 12.23749 | 145.71985 | 30838 ft | 413 kts | 305° |
| 2026-04-29 16:37 | 12.25309 | 145.69525 | 30363 ft | 412 kts | 304° |
| 2026-04-29 16:37 | 12.26845 | 145.67105 | 29887 ft | 410 kts | 304° |
| 2026-04-29 16:37 | 12.28394 | 145.64664 | 29356 ft | 408 kts | 305° |
| 2026-04-29 16:38 | 12.29932 | 145.62237 | 28883 ft | 405 kts | 305° |
| 2026-04-29 16:38 | 12.31459 | 145.59827 | 28445 ft | 402 kts | 304° |
| 2026-04-29 16:38 | 12.32971 | 145.57439 | 28014 ft | 398 kts | 306° |
| 2026-04-29 16:38 | 12.34472 | 145.55069 | 27578 ft | 396 kts | 305° |
| 2026-04-29 16:39 | 12.35962 | 145.52717 | 27149 ft | 393 kts | 304° |
| 2026-04-29 16:39 | 12.37445 | 145.50376 | 26728 ft | 391 kts | 305° |
| 2026-04-29 16:39 | 12.38917 | 145.48052 | 26312 ft | 389 kts | 304° |
| 2026-04-29 16:39 | 12.40382 | 145.45735 | 25898 ft | 387 kts | 305° |
| 2026-04-29 16:40 | 12.41844 | 145.43427 | 25488 ft | 386 kts | 304° |
| 2026-04-29 16:40 | 12.43297 | 145.41128 | 25083 ft | 384 kts | 304° |
| 2026-04-29 16:40 | 12.44747 | 145.38837 | 24691 ft | 383 kts | 304° |
| 2026-04-29 16:40 | 12.46192 | 145.36549 | 24269 ft | 383 kts | 304° |
| 2026-04-29 16:41 | 12.47639 | 145.34261 | 23867 ft | 382 kts | 304° |
| 2026-04-29 16:41 | 12.49082 | 145.31979 | 23451 ft | 382 kts | 303° |
| 2026-04-29 16:41 | 12.50524 | 145.29695 | 22970 ft | 382 kts | 304° |
| 2026-04-29 16:41 | 12.51961 | 145.27420 | 22554 ft | 380 kts | 304° |
| 2026-04-29 16:42 | 12.53390 | 145.25159 | 22156 ft | 377 kts | 305° |
| 2026-04-29 16:42 | 12.54811 | 145.22907 | 21758 ft | 375 kts | 304° |
| 2026-04-29 16:42 | 12.56223 | 145.20670 | 21365 ft | 373 kts | 305° |
| 2026-04-29 16:42 | 12.57627 | 145.18444 | 20976 ft | 371 kts | 304° |
| 2026-04-29 16:43 | 12.59024 | 145.16229 | 20586 ft | 370 kts | 304° |
| 2026-04-29 16:43 | 12.60417 | 145.14022 | 20200 ft | 368 kts | 304° |
| 2026-04-29 16:43 | 12.61803 | 145.11824 | 19817 ft | 367 kts | 304° |
| 2026-04-29 16:43 | 12.63184 | 145.09635 | 19430 ft | 365 kts | 304° |
| 2026-04-29 16:44 | 12.64559 | 145.07454 | 19046 ft | 364 kts | 304° |
| 2026-04-29 16:44 | 12.65932 | 145.05275 | 18661 ft | 363 kts | 304° |
| 2026-04-29 16:44 | 12.67301 | 145.03101 | 18276 ft | 363 kts | 304° |
| 2026-04-29 16:44 | 12.68669 | 145.00931 | 17842 ft | 362 kts | 304° |
| 2026-04-29 16:45 | 12.70013 | 144.98794 | 17439 ft | 361 kts | 304° |
| 2026-04-29 16:45 | 12.71369 | 144.96641 | 17050 ft | 359 kts | 304° |
| 2026-04-29 16:45 | 12.72719 | 144.94498 | 16668 ft | 357 kts | 304° |
| 2026-04-29 16:45 | 12.74060 | 144.92369 | 16311 ft | 355 kts | 305° |
| 2026-04-29 16:46 | 12.75393 | 144.90249 | 15935 ft | 353 kts | 304° |
| 2026-04-29 16:46 | 12.76723 | 144.88136 | 15538 ft | 352 kts | 304° |
| 2026-04-29 16:46 | 12.78045 | 144.86034 | 15161 ft | 351 kts | 305° |
| 2026-04-29 16:46 | 12.79650 | 144.84179 | 14651 ft | 348 kts | 327° |
| 2026-04-29 16:47 | 12.81770 | 144.83084 | 14325 ft | 338 kts | 343° |
| 2026-04-29 16:47 | 12.83959 | 144.82232 | 13993 ft | 336 kts | 341° |
| 2026-04-29 16:47 | 12.86142 | 144.81360 | 13534 ft | 338 kts | 342° |
| 2026-04-29 16:47 | 12.88344 | 144.80493 | 13023 ft | 340 kts | 342° |
| 2026-04-29 16:48 | 12.90550 | 144.79629 | 12582 ft | 339 kts | 342° |
| 2026-04-29 16:48 | 12.92756 | 144.78771 | 12156 ft | 339 kts | 341° |
| 2026-04-29 16:48 | 12.94954 | 144.77912 | 11736 ft | 338 kts | 343° |
| 2026-04-29 16:48 | 12.97148 | 144.77057 | 11317 ft | 337 kts | 342° |
| 2026-04-29 16:49 | 12.99337 | 144.76203 | 10892 ft | 337 kts | 341° |
| 2026-04-29 16:49 | 13.01520 | 144.75352 | 10470 ft | 333 kts | 342° |
| 2026-04-29 16:49 | 13.03667 | 144.74514 | 10052 ft | 328 kts | 342° |
| 2026-04-29 16:49 | 13.05783 | 144.73689 | 9621 ft | 323 kts | 342° |
| 2026-04-29 16:50 | 13.07864 | 144.72876 | 9181 ft | 318 kts | 342° |
| 2026-04-29 16:50 | 13.09912 | 144.72077 | 8773 ft | 312 kts | 343° |
| 2026-04-29 16:50 | 13.11923 | 144.71293 | 8395 ft | 306 kts | 343° |
| 2026-04-29 16:50 | 13.13899 | 144.70521 | 8012 ft | 301 kts | 342° |
| 2026-04-29 16:51 | 13.15840 | 144.69763 | 7645 ft | 296 kts | 343° |
| 2026-04-29 16:51 | 13.17748 | 144.69018 | 7274 ft | 291 kts | 342° |
| 2026-04-29 16:51 | 13.19629 | 144.68284 | 6907 ft | 287 kts | 342° |
| 2026-04-29 16:51 | 13.21483 | 144.67560 | 6552 ft | 283 kts | 343° |
| 2026-04-29 16:52 | 13.23309 | 144.66847 | 6180 ft | 279 kts | 343° |
| 2026-04-29 16:52 | 13.25075 | 144.66054 | 5848 ft | 276 kts | 338° |
| 2026-04-29 16:52 | 13.26809 | 144.65217 | 5556 ft | 274 kts | 339° |
| 2026-04-29 16:52 | 13.28535 | 144.64392 | 5275 ft | 273 kts | 339° |
| 2026-04-29 16:53 | 13.30250 | 144.63577 | 4993 ft | 271 kts | 339° |
| 2026-04-29 16:53 | 13.31954 | 144.62769 | 4709 ft | 269 kts | 339° |
| 2026-04-29 16:53 | 13.33653 | 144.61965 | 4425 ft | 268 kts | 339° |
| 2026-04-29 16:53 | 13.35341 | 144.61167 | 4133 ft | 266 kts | 340° |
| 2026-04-29 16:54 | 13.37036 | 144.60439 | 3844 ft | 262 kts | 351° |
| 2026-04-29 16:54 | 13.38786 | 144.60532 | 3490 ft | 250 kts | 25° |
| 2026-04-29 16:54 | 13.40181 | 144.61451 | 3265 ft | 238 kts | 50° |
| 2026-04-29 16:54 | 13.40980 | 144.62873 | 3143 ft | 225 kts | 72° |
| 2026-04-29 16:55 | 13.41505 | 144.64334 | 3067 ft | 211 kts | 69° |
| 2026-04-29 16:55 | 13.42090 | 144.65678 | 2846 ft | 203 kts | 67° |
| 2026-04-29 16:55 | 13.42678 | 144.66958 | 2621 ft | 192 kts | 66° |
| 2026-04-29 16:55 | 13.43227 | 144.68157 | 2380 ft | 176 kts | 66° |
| 2026-04-29 16:56 | 13.43703 | 144.69210 | 2172 ft | 149 kts | 66° |
| 2026-04-29 16:56 | 13.44117 | 144.70108 | 1983 ft | 135 kts | 70° |
| 2026-04-29 16:56 | 13.44512 | 144.70989 | 1836 ft | 136 kts | 68° |
| 2026-04-29 16:56 | 13.44908 | 144.71838 | 1647 ft | 128 kts | 70° |
| 2026-04-29 16:57 | 13.45270 | 144.72656 | 1482 ft | 124 kts | 67° |
| 2026-04-29 16:57 | 13.45636 | 144.73463 | 1295 ft | 128 kts | 64° |
| 2026-04-29 16:57 | 13.46021 | 144.74293 | 1189 ft | 131 kts | 65° |
| 2026-04-29 16:57 | 13.46409 | 144.75144 | 902 ft | 132 kts | 67° |
| 2026-04-29 16:58 | 13.46813 | 144.76052 | 816 ft | 138 kts | 65° |
| 2026-04-29 16:58 | 13.47211 | 144.76913 | 673 ft | 129 kts | 63° |
| 2026-04-29 16:58 | 13.47611 | 144.77791 | 419 ft | 141 kts | 66° |
| 2026-04-29 16:58 | 13.48016 | 144.78668 | 278 ft | 128 kts | 65° |
| 2026-04-29 16:59 | 13.48353 | 144.79409 | 284 ft | 102 kts | 65° |
| 2026-04-29 16:59 | 13.48609 | 144.79965 | 288 ft | 69 kts | 64° |
| 2026-04-29 16:59 | 13.48772 | 144.80324 | 299 ft | 50 kts | 64° |
| 2026-04-29 16:59 | 13.48916 | 144.80638 | 300 ft | 47 kts | 65° |
| 2026-04-29 17:00 | 13.49042 | 144.80893 | 299 ft | 29 kts | 44° |
| 2026-04-29 17:00 | 13.49211 | 144.80988 | 304 ft | 23 kts | 25° |
| 2026-04-29 17:00 | 13.49350 | 144.81048 | 301 ft | 19 kts | 8° |
| 2026-04-29 17:00 | 13.49473 | 144.80996 | 299 ft | 21 kts | 333° |
| 2026-04-29 17:01 | 13.49550 | 144.80919 | 299 ft | 15 kts | 264° |
| 2026-04-29 17:01 | 13.49501 | 144.80816 | 301 ft | 17 kts | 242° |
| 2026-04-29 17:01 | 13.49465 | 144.80749 | 301 ft | 9 kts | 233° |
| 2026-04-29 17:01 | 13.49419 | 144.80755 | 299 ft | 8 kts | 151° |
| 2026-04-29 17:02 | 13.49393 | 144.80770 | 299 ft | 0 kts | 151° |